Time;durP1;ratioP1;P1;durP2;ratioP2;P2;SDS_P1;SDS_P2;PMS_P1;PMS_P2;Temp;Humidity;BMP_temperature;BMP_pressure;BME280_temperature;BME280_humidity;BME280_pressure;Samples;Min_cycle;Max_cycle;Signal;HPM_P1;HPM_P2
2021/05/23 00:02:04;;;;;;;14.10;10.15;;;435.30;2355.20;;;;;;4901171;29;20025;-63
2021/05/23 00:04:30;;;;;;;12.85;10.02;;;435.30;2355.20;;;;;;4900727;29;20032;-63
2021/05/23 00:06:56;;;;;;;13.18;9.98;;;435.30;2355.20;;;;;;4900657;29;20039;-64
2021/05/23 00:09:21;;;;;;;13.65;10.10;;;435.30;2355.20;;;;;;4900102;29;20157;-64
2021/05/23 00:11:47;;;;;;;14.13;10.40;;;435.30;2355.20;;;;;;4900567;29;20475;-64
2021/05/23 00:14:13;;;;;;;13.63;10.07;;;435.20;2355.20;;;;;;4900760;29;20546;-63
2021/05/23 00:16:39;;;;;;;13.38;10.32;;;435.20;2355.20;;;;;;4900591;29;20024;-63
2021/05/23 00:19:05;;;;;;;15.38;10.88;;;435.20;2355.20;;;;;;4900581;29;20100;-63
2021/05/23 00:21:30;;;;;;;15.02;10.48;;;435.20;2355.20;;;;;;4900502;29;20435;-63
2021/05/23 00:23:57;;;;;;;17.25;11.65;;;435.20;2355.20;;;;;;4900593;29;20033;-63
2021/05/23 00:26:23;;;;;;;17.77;12.13;;;435.20;2355.20;;;;;;4900274;29;20043;-63
2021/05/23 00:28:49;;;;;;;21.27;12.13;;;435.20;2355.20;;;;;;4900309;29;20032;-63
2021/05/23 00:31:16;;;;;;;19.27;12.68;;;410.50;2355.20;;;;;;4900527;29;20420;-63
2021/05/23 00:33:42;;;;;;;17.98;12.70;;;410.40;2355.20;;;;;;4900309;29;20485;-63
2021/05/23 00:36:08;;;;;;;16.52;12.95;;;410.40;2355.20;;;;;;4900402;29;20098;-63
2021/05/23 00:38:34;;;;;;;17.55;12.10;;;410.40;2355.20;;;;;;4900281;29;20451;-62
2021/05/23 00:41:00;;;;;;;18.58;12.65;;;410.30;2355.20;;;;;;4899513;29;20123;-64
2021/05/23 00:43:26;;;;;;;17.00;12.60;;;410.40;2355.20;;;;;;4900161;29;20020;-64
2021/05/23 00:45:52;;;;;;;17.45;13.10;;;410.40;2355.20;;;;;;4882447;29;20172;-64
2021/05/23 00:48:21;;;;;;;17.85;12.85;;;410.40;2355.20;;;;;;4900042;29;20416;-65
2021/05/23 00:50:47;;;;;;;17.33;11.77;;;410.30;2355.20;;;;;;4899935;29;20049;-63
2021/05/23 00:53:13;;;;;;;18.10;12.35;;;410.40;2355.20;;;;;;4899500;29;20036;-64
2021/05/23 00:55:39;;;;;;;15.63;11.80;;;410.50;2355.20;;;;;;4899203;29;20039;-63
2021/05/23 00:58:07;;;;;;;15.52;11.48;;;435.20;2355.20;;;;;;4899650;29;20378;-63
2021/05/23 01:00:35;;;;;;;17.50;12.00;;;435.20;2355.20;;;;;;4899559;29;20029;-64
2021/05/23 01:03:02;;;;;;;15.93;9.88;;;435.30;2355.20;;;;;;4899784;29;20129;-64
2021/05/23 01:05:28;;;;;;;17.00;10.25;;;435.20;2355.20;;;;;;4899781;29;20055;-63
2021/05/23 01:07:54;;;;;;;14.57;10.38;;;410.50;2355.20;;;;;;4897657;29;20024;-63
2021/05/23 01:10:22;;;;;;;14.02;9.80;;;410.50;2355.20;;;;;;4893637;29;20132;-64
2021/05/23 01:12:54;;;;;;;13.63;10.57;;;410.50;2355.20;;;;;;4899254;29;20547;-63
2021/05/23 01:15:35;;;;;;;13.48;9.70;;;410.50;2355.20;;;;;;4899398;29;20033;-64
2021/05/23 01:18:15;;;;;;;14.80;10.32;;;410.40;2355.20;;;;;;4899622;29;20483;-64
2021/05/23 01:20:44;;;;;;;14.00;10.75;;;410.40;2355.20;;;;;;4899642;29;20028;-63
2021/05/23 01:23:19;;;;;;;14.48;10.75;;;410.40;2355.20;;;;;;4899199;29;20028;-63
2021/05/23 01:25:50;;;;;;;14.45;9.65;;;410.50;2355.20;;;;;;4899446;29;20085;-62
2021/05/23 01:28:17;;;;;;;14.45;9.90;;;410.50;2355.20;;;;;;4899324;29;20086;-62
2021/05/23 01:30:49;;;;;;;14.68;10.57;;;410.40;2355.20;;;;;;4899534;29;20041;-62
2021/05/23 01:33:18;;;;;;;16.50;10.65;;;410.40;2355.20;;;;;;4899308;29;20084;-62
2021/05/23 01:35:49;;;;;;;14.85;10.07;;;410.40;2355.20;;;;;;4882584;29;20032;-63
2021/05/23 01:38:19;;;;;;;16.38;10.00;;;410.30;2355.20;;;;;;4898908;29;20029;-63
2021/05/23 01:40:46;;;;;;;14.02;10.10;;;410.30;2355.20;;;;;;4898643;29;20029;-62
2021/05/23 01:43:13;;;;;;;13.00;9.90;;;410.30;2355.20;;;;;;4898930;29;20029;-61
2021/05/23 01:45:40;;;;;;;13.90;9.48;;;410.30;2355.20;;;;;;4898813;29;20056;-63
2021/05/23 01:48:07;;;;;;;12.63;9.68;;;410.30;2355.20;;;;;;4898844;29;20025;-63
2021/05/23 01:50:34;;;;;;;13.88;9.68;;;410.20;2355.20;;;;;;4898983;29;20040;-62
2021/05/23 01:53:04;;;;;;;14.43;9.70;;;410.00;2355.20;;;;;;4898871;29;20033;-62
2021/05/23 01:55:31;;;;;;;12.13;9.73;;;410.10;2355.20;;;;;;4898826;29;20052;-63
2021/05/23 01:57:57;;;;;;;16.65;9.93;;;410.00;2355.20;;;;;;4881561;29;20035;-62
2021/05/23 02:00:35;;;;;;;14.75;9.75;;;410.00;2355.20;;;;;;4898776;29;20040;-62
2021/05/23 02:03:05;;;;;;;12.20;9.70;;;410.00;2355.20;;;;;;4898686;29;20040;-62
2021/05/23 02:05:31;;;;;;;15.05;9.55;;;409.90;2355.20;;;;;;4898090;29;20360;-62
2021/05/23 02:07:57;;;;;;;12.55;9.20;;;409.90;2355.20;;;;;;4898920;29;20056;-62
2021/05/23 02:10:23;;;;;;;12.82;9.55;;;410.00;2355.20;;;;;;4898102;29;20080;-62
2021/05/23 02:12:49;;;;;;;13.65;10.05;;;410.00;2355.20;;;;;;4898681;29;20033;-62
2021/05/23 02:15:17;;;;;;;12.63;9.65;;;410.10;2355.20;;;;;;4898334;29;20112;-63
2021/05/23 02:17:45;;;;;;;13.88;10.00;;;410.00;2355.20;;;;;;4898392;29;20476;-62
2021/05/23 02:20:13;;;;;;;13.73;10.85;;;410.00;2355.20;;;;;;4898732;29;20032;-62
2021/05/23 02:22:44;;;;;;;14.60;10.98;;;409.90;2355.20;;;;;;4898639;29;20031;-63
2021/05/23 02:25:14;;;;;;;11.82;10.13;;;409.90;2355.20;;;;;;4898377;29;20051;-62
2021/05/23 02:27:48;;;;;;;13.70;10.02;;;409.90;2355.20;;;;;;4898605;29;20025;-62
2021/05/23 02:30:18;;;;;;;14.98;10.27;;;409.90;2355.20;;;;;;4898314;29;20121;-61
2021/05/23 02:32:45;;;;;;;13.07;9.70;;;410.00;2355.20;;;;;;4898584;29;20028;-62
2021/05/23 02:35:13;;;;;;;12.48;9.77;;;410.00;2355.20;;;;;;4892091;29;20032;-62
2021/05/23 02:37:39;;;;;;;13.63;10.48;;;410.00;2355.20;;;;;;4898533;29;20059;-62
2021/05/23 02:40:11;;;;;;;14.88;10.77;;;410.10;2355.20;;;;;;4898457;29;20036;-62
2021/05/23 02:42:37;;;;;;;13.73;10.45;;;409.90;2355.20;;;;;;4897994;29;20040;-62
2021/05/23 02:45:06;;;;;;;12.18;10.07;;;409.90;2355.20;;;;;;4898145;29;20496;-62
2021/05/23 02:47:32;;;;;;;12.50;9.68;;;409.90;2355.20;;;;;;4898258;29;20546;-62
2021/05/23 02:49:58;;;;;;;12.05;9.80;;;409.80;2355.20;;;;;;4898266;29;20060;-62
2021/05/23 02:52:24;;;;;;;14.57;10.75;;;409.70;2355.20;;;;;;4898494;29;20032;-62
2021/05/23 02:54:50;;;;;;;12.65;10.25;;;409.60;2355.20;;;;;;4898209;29;20036;-62
2021/05/23 02:57:16;;;;;;;14.73;9.82;;;409.60;2355.20;;;;;;4898194;29;20436;-62
2021/05/23 02:59:42;;;;;;;12.93;10.48;;;409.60;2355.20;;;;;;4898164;29;20059;-62
2021/05/23 03:02:09;;;;;;;15.13;10.48;;;409.60;2355.20;;;;;;4898142;29;20045;-62
2021/05/23 03:04:35;;;;;;;16.88;10.80;;;409.60;2355.20;;;;;;4897799;29;20035;-62
2021/05/23 03:07:02;;;;;;;14.73;11.90;;;409.60;2355.20;;;;;;4898141;29;20164;-62
2021/05/23 03:09:27;;;;;;;15.63;11.90;;;384.90;2329.60;;;;;;4897924;29;20131;-61
2021/05/23 03:11:53;;;;;;;15.90;11.82;;;409.60;2355.20;;;;;;4898067;29;20111;-61
2021/05/23 03:14:20;;;;;;;13.73;10.73;;;409.60;2355.20;;;;;;4897901;29;20040;-62
2021/05/23 03:16:45;;;;;;;14.85;11.90;;;409.70;2355.20;;;;;;4898123;29;20475;-62
2021/05/23 03:19:11;;;;;;;15.15;12.18;;;409.60;2355.20;;;;;;4901779;29;20032;-62
2021/05/23 03:21:37;;;;;;;15.85;11.98;;;409.60;2355.20;;;;;;4901738;29;20033;-62
2021/05/23 03:24:04;;;;;;;17.33;12.57;;;384.90;2329.60;;;;;;4901623;29;20512;-62
2021/05/23 03:26:30;;;;;;;16.10;12.20;;;384.90;2329.60;;;;;;4901275;29;20037;-62
2021/05/23 03:28:56;;;;;;;15.73;11.15;;;384.90;2329.60;;;;;;4901271;29;20028;-61
2021/05/23 03:31:21;;;;;;;15.70;10.82;;;384.90;2329.60;;;;;;4901542;29;20095;-61
2021/05/23 03:33:47;;;;;;;13.25;9.93;;;409.60;2355.20;;;;;;4901422;29;20172;-61
2021/05/23 03:36:13;;;;;;;14.00;9.52;;;409.60;2355.20;;;;;;4901433;29;20029;-62
2021/05/23 03:38:38;;;;;;;15.05;10.15;;;384.90;2329.60;;;;;;4901429;29;20028;-62
2021/05/23 03:41:04;;;;;;;13.23;9.90;;;384.90;2329.60;;;;;;4901115;29;20035;-62
2021/05/23 03:43:30;;;;;;;11.60;9.20;;;409.60;2355.20;;;;;;4901035;29;20056;-62
2021/05/23 03:45:56;;;;;;;13.00;9.80;;;409.60;2355.20;;;;;;4900971;29;20491;-61
2021/05/23 03:48:21;;;;;;;12.45;9.65;;;409.70;2355.20;;;;;;4901242;29;20060;-62
2021/05/23 03:50:47;;;;;;;13.52;9.68;;;409.80;2355.20;;;;;;4901011;29;20037;-62
2021/05/23 03:53:13;;;;;;;11.93;9.45;;;409.90;2355.20;;;;;;4901027;29;20104;-62
2021/05/23 03:55:39;;;;;;;13.68;10.63;;;410.00;2355.20;;;;;;4900920;29;20055;-62
2021/05/23 03:58:07;;;;;;;16.65;11.38;;;410.10;2355.20;;;;;;4900787;29;20095;-61
2021/05/23 04:00:35;;;;;;;16.52;12.40;;;410.10;2355.20;;;;;;4900913;29;20056;-62
2021/05/23 04:03:01;;;;;;;15.05;11.43;;;410.10;2355.20;;;;;;4900697;29;20037;-62
2021/05/23 04:05:29;;;;;;;16.90;12.07;;;410.20;2355.20;;;;;;4900940;29;20040;-62
2021/05/23 04:07:55;;;;;;;14.20;11.10;;;410.20;2355.20;;;;;;4900543;29;20024;-62
2021/05/23 04:10:24;;;;;;;15.18;11.43;;;410.20;2355.20;;;;;;4900336;29;20519;-62
2021/05/23 04:12:51;;;;;;;15.82;11.88;;;410.40;2355.20;;;;;;4900585;29;20036;-62
2021/05/23 04:15:18;;;;;;;14.63;11.45;;;410.50;2355.20;;;;;;4900504;29;20032;-62
2021/05/23 04:17:45;;;;;;;14.77;11.23;;;435.20;2355.20;;;;;;4900503;29;20029;-62
2021/05/23 04:20:13;;;;;;;14.93;11.05;;;435.30;2355.20;;;;;;4900645;29;20145;-62
2021/05/23 04:22:39;;;;;;;17.27;11.23;;;435.40;2355.20;;;;;;4900133;29;20033;-62
2021/05/23 04:25:12;;;;;;;16.05;10.68;;;435.40;2355.20;;;;;;4900093;29;20495;-62
2021/05/23 04:27:39;;;;;;;16.00;10.95;;;435.50;2355.20;;;;;;4900237;29;20115;-62
2021/05/23 04:30:07;;;;;;;14.95;11.50;;;435.60;2355.20;;;;;;4900185;29;20036;-61
2021/05/23 04:32:33;;;;;;;14.73;11.13;;;435.50;2355.20;;;;;;4900508;29;20032;-61
2021/05/23 04:34:59;;;;;;;15.77;12.05;;;435.60;2355.20;;;;;;4900365;29;20164;-62
2021/05/23 04:37:25;;;;;;;14.15;11.18;;;435.60;2355.20;;;;;;4900631;29;20514;-62
2021/05/23 04:39:51;;;;;;;13.73;10.50;;;435.70;2355.20;;;;;;4900149;29;20037;-62
2021/05/23 04:42:17;;;;;;;14.63;11.57;;;435.70;2355.20;;;;;;4900101;29;20036;-62
2021/05/23 04:44:42;;;;;;;15.30;11.38;;;435.70;2355.20;;;;;;4899784;29;20045;-61
2021/05/23 04:47:08;;;;;;;16.98;11.70;;;435.70;2355.20;;;;;;4900070;29;20028;-62
2021/05/23 04:49:38;;;;;;;14.85;11.60;;;435.80;2355.20;;;;;;4899977;29;20539;-62
2021/05/23 04:52:09;;;;;;;16.15;11.30;;;435.80;2355.20;;;;;;4900183;29;20356;-63
2021/05/23 04:54:37;;;;;;;13.65;10.63;;;436.00;2355.20;;;;;;4899916;29;20025;-65
2021/05/23 04:57:04;;;;;;;14.27;10.75;;;436.10;2355.20;;;;;;4899898;29;20421;-62
2021/05/23 04:59:30;;;;;;;16.05;11.10;;;436.10;2355.20;;;;;;4899605;29;20024;-64
2021/05/23 05:01:56;;;;;;;13.15;10.35;;;460.90;2380.80;;;;;;4899884;29;20028;-65
2021/05/23 05:04:22;;;;;;;15.10;10.60;;;460.90;2380.80;;;;;;4899718;29;20035;-64
2021/05/23 05:06:48;;;;;;;13.35;9.93;;;461.10;2380.80;;;;;;4899511;29;20048;-66
2021/05/23 05:09:14;;;;;;;13.63;9.68;;;461.10;2380.80;;;;;;4899707;29;20100;-64
2021/05/23 05:11:40;;;;;;;11.82;9.32;;;461.20;2380.80;;;;;;4899507;29;20388;-65
2021/05/23 05:14:06;;;;;;;11.90;9.68;;;461.30;2380.80;;;;;;4899638;29;20092;-65
2021/05/23 05:16:31;;;;;;;12.45;9.10;;;461.30;2380.80;;;;;;4899398;29;20115;-63
2021/05/23 05:18:57;;;;;;;11.90;9.50;;;461.30;2355.20;;;;;;4899556;29;20031;-64
2021/05/23 05:21:23;;;;;;;12.85;9.52;;;461.30;2380.80;;;;;;4899453;29;20104;-65
2021/05/23 05:23:49;;;;;;;12.02;10.13;;;461.30;2380.80;;;;;;4899392;29;20028;-65
2021/05/23 05:26:15;;;;;;;15.32;10.50;;;461.40;2380.80;;;;;;4898783;29;20040;-64
2021/05/23 05:28:41;;;;;;;12.45;10.30;;;461.40;2380.80;;;;;;4894598;29;20028;-65
2021/05/23 05:31:07;;;;;;;13.63;10.18;;;461.40;2380.80;;;;;;4898855;29;20036;-63
2021/05/23 05:33:33;;;;;;;11.60;9.40;;;461.50;2380.80;;;;;;4899132;29;20080;-64
2021/05/23 05:35:59;;;;;;;14.82;11.13;;;461.60;2355.20;;;;;;4898881;29;20024;-64
2021/05/23 05:38:24;;;;;;;15.15;10.23;;;461.70;2380.80;;;;;;4899197;29;20033;-61
2021/05/23 05:40:50;;;;;;;11.80;10.05;;;461.70;2355.20;;;;;;4898382;29;20025;-63
2021/05/23 05:43:16;;;;;;;11.80;9.13;;;461.70;2355.20;;;;;;4898966;29;20024;-62
2021/05/23 05:45:42;;;;;;;11.15;9.00;;;461.70;2355.20;;;;;;4898700;29;20123;-62
2021/05/23 05:48:07;;;;;;;12.05;8.70;;;486.40;2355.20;;;;;;4899125;29;20028;-62
2021/05/23 05:50:33;;;;;;;11.88;8.88;;;486.50;2329.60;;;;;;4898868;29;20383;-62
2021/05/23 05:52:59;;;;;;;12.52;8.63;;;486.60;2329.60;;;;;;4898926;29;20108;-62
2021/05/23 05:55:25;;;;;;;10.20;7.43;;;486.80;2304.00;;;;;;4898679;29;20467;-62
2021/05/23 05:57:51;;;;;;;10.52;6.95;;;487.00;2227.20;;;;;;4899052;29;20032;-62
2021/05/23 06:00:17;;;;;;;9.20;6.43;;;487.20;2201.60;;;;;;4898415;29;20083;-62
2021/05/23 06:02:43;;;;;;;11.40;7.38;;;512.00;2176.00;;;;;;4893837;29;20024;-62
2021/05/23 06:05:09;;;;;;;9.45;6.70;;;512.20;2124.80;;;;;;4897997;29;20025;-62
2021/05/23 06:07:35;;;;;;;10.13;7.03;;;512.40;2124.80;;;;;;4893495;29;20484;-62
2021/05/23 06:10:01;;;;;;;9.15;6.70;;;512.50;2099.20;;;;;;4898733;29;20080;-62
2021/05/23 06:12:26;;;;;;;8.82;5.75;;;512.40;2124.80;;;;;;4898283;29;20087;-62
2021/05/23 06:14:52;;;;;;;9.18;6.35;;;512.50;2048.00;;;;;;4898540;29;20032;-62
2021/05/23 06:17:18;;;;;;;8.30;5.82;;;512.40;2073.60;;;;;;4898771;29;20042;-62
2021/05/23 06:19:43;;;;;;;11.05;6.25;;;512.40;2022.40;;;;;;4898658;29;20021;-63
2021/05/23 06:22:09;;;;;;;9.07;6.18;;;512.50;2048.00;;;;;;4898512;29;20378;-63
2021/05/23 06:24:35;;;;;;;9.15;5.95;;;512.40;2048.00;;;;;;4898619;29;20029;-63
2021/05/23 06:27:01;;;;;;;7.80;4.97;;;512.60;2022.40;;;;;;4898557;29;20109;-63
2021/05/23 06:29:26;;;;;;;7.85;5.50;;;512.60;1996.80;;;;;;4898476;29;20029;-63
2021/05/23 06:31:52;;;;;;;7.57;5.03;;;512.80;2022.40;;;;;;4898535;29;20029;-64
2021/05/23 06:34:18;;;;;;;5.85;4.65;;;537.60;1996.80;;;;;;4898524;29;20056;-63
2021/05/23 06:36:43;;;;;;;8.00;5.07;;;537.70;1945.60;;;;;;4894203;29;20501;-62
2021/05/23 06:39:09;;;;;;;7.50;5.18;;;537.60;1971.20;;;;;;4893924;29;20065;-63
2021/05/23 06:41:36;;;;;;;6.75;4.95;;;537.70;1996.80;;;;;;4894182;29;20029;-63
2021/05/23 06:44:02;;;;;;;7.68;5.07;;;537.80;1971.20;;;;;;4893640;29;20029;-62
2021/05/23 06:46:28;;;;;;;8.25;4.75;;;537.80;1996.80;;;;;;4895778;29;20591;-63
2021/05/23 06:48:54;;;;;;;6.30;4.13;;;537.90;1971.20;;;;;;4894937;29;20112;-62
2021/05/23 06:51:20;;;;;;;6.05;4.10;;;537.90;1894.40;;;;;;4897473;29;20043;-63
2021/05/23 06:53:47;;;;;;;8.23;5.00;;;538.00;1894.40;;;;;;4885215;29;20050;-63
2021/05/23 06:56:14;;;;;;;7.93;4.35;;;538.00;1868.80;;;;;;4894318;29;20021;-63
2021/05/23 06:58:42;;;;;;;7.35;4.40;;;538.00;1868.80;;;;;;4895812;29;20035;-62
2021/05/23 07:01:08;;;;;;;6.50;4.57;;;538.10;1894.40;;;;;;4896709;29;20099;-63
2021/05/23 07:03:34;;;;;;;7.65;5.25;;;538.10;1868.80;;;;;;4896924;29;20025;-63
2021/05/23 07:06:00;;;;;;;6.25;5.22;;;538.20;1868.80;;;;;;4895233;29;20040;-63
2021/05/23 07:08:25;;;;;;;7.78;5.30;;;538.40;1868.80;;;;;;4895352;29;20056;-63
2021/05/23 07:10:51;;;;;;;6.25;4.75;;;538.40;1843.20;;;;;;4896003;29;20463;-64
2021/05/23 07:13:17;;;;;;;9.02;5.20;;;538.50;1868.80;;;;;;4895372;29;20033;-64
2021/05/23 07:15:42;;;;;;;6.47;4.70;;;538.40;1766.40;;;;;;4897060;29;20036;-65
2021/05/23 07:18:08;;;;;;;7.28;4.97;;;538.50;1843.20;;;;;;4896673;29;20499;-63
2021/05/23 07:20:34;;;;;;;6.45;4.78;;;563.20;1817.60;;;;;;4893691;29;20035;-63
2021/05/23 07:23:00;;;;;;;8.77;4.18;;;563.40;1843.20;;;;;;4894899;29;20467;-63
2021/05/23 07:25:25;;;;;;;7.90;4.55;;;563.40;1817.60;;;;;;4894859;29;20033;-63
2021/05/23 07:27:51;;;;;;;8.82;4.50;;;563.40;1792.00;;;;;;4894922;29;20093;-63
2021/05/23 07:30:17;;;;;;;6.88;4.15;;;563.30;1766.40;;;;;;4896083;29;20028;-63
2021/05/23 07:32:43;;;;;;;7.15;4.40;;;563.50;1766.40;;;;;;4896494;29;20028;-64
2021/05/23 07:35:10;;;;;;;6.40;4.38;;;563.60;1792.00;;;;;;4901585;29;20032;-64
2021/05/23 07:37:36;;;;;;;6.75;4.32;;;563.60;1792.00;;;;;;4898155;29;20565;-64
2021/05/23 07:40:04;;;;;;;5.88;4.20;;;563.80;1792.00;;;;;;4894597;29;20036;-63
2021/05/23 07:42:30;;;;;;;6.97;3.97;;;563.90;1715.20;;;;;;4891322;29;20020;-63
2021/05/23 07:44:55;;;;;;;5.40;4.10;;;564.00;1689.60;;;;;;4894187;29;20032;-62
2021/05/23 07:47:21;;;;;;;6.97;4.70;;;564.00;1715.20;;;;;;4894622;29;20080;-62
2021/05/23 07:49:47;;;;;;;6.18;4.30;;;588.80;1715.20;;;;;;4893984;29;20532;-63
2021/05/23 07:52:13;;;;;;;5.40;4.18;;;588.80;1715.20;;;;;;4896058;29;20480;-62
2021/05/23 07:54:40;;;;;;;5.93;4.13;;;588.90;1664.00;;;;;;4895906;29;20118;-62
2021/05/23 07:57:07;;;;;;;5.85;4.50;;;589.00;1664.00;;;;;;4897214;29;20025;-63
2021/05/23 07:59:33;;;;;;;5.60;4.15;;;589.10;1664.00;;;;;;4892915;29;20391;-64
2021/05/23 08:02:00;;;;;;;6.75;4.15;;;589.20;1689.60;;;;;;4897568;29;20024;-63
2021/05/23 08:04:26;;;;;;;5.93;4.20;;;589.20;1587.20;;;;;;4897564;29;20028;-63
2021/05/23 08:06:52;;;;;;;6.75;3.90;;;589.10;1638.40;;;;;;4898014;29;20068;-63
2021/05/23 08:09:19;;;;;;;4.93;3.20;;;589.10;1612.80;;;;;;4900766;29;20052;-64
2021/05/23 08:11:46;;;;;;;4.93;2.95;;;589.30;1536.00;;;;;;4900724;29;20041;-63
2021/05/23 08:14:13;;;;;;;5.72;3.20;;;589.30;1510.40;;;;;;4900904;29;20033;-64
2021/05/23 08:16:39;;;;;;;5.43;3.00;;;589.40;1484.80;;;;;;4900865;29;20092;-64
2021/05/23 08:19:05;;;;;;;6.32;2.97;;;589.60;1484.80;;;;;;4900569;29;20495;-63
2021/05/23 08:21:31;;;;;;;5.20;2.80;;;589.60;1459.20;;;;;;4896772;29;20032;-63
2021/05/23 08:23:58;;;;;;;4.10;3.00;;;589.70;1459.20;;;;;;4900566;29;20084;-63
2021/05/23 08:26:24;;;;;;;7.65;3.08;;;589.70;1433.60;;;;;;4900476;29;20046;-64
2021/05/23 08:28:49;;;;;;;5.45;2.80;;;614.40;1433.60;;;;;;4900026;29;20442;-63
2021/05/23 08:31:16;;;;;;;4.95;2.90;;;614.50;1433.60;;;;;;4893522;29;20087;-64
2021/05/23 08:33:42;;;;;;;7.75;2.72;;;614.60;1408.00;;;;;;4892089;29;20033;-63
2021/05/23 08:36:08;;;;;;;3.90;2.55;;;614.50;1459.20;;;;;;4895076;29;20435;-63
2021/05/23 08:38:34;;;;;;;7.20;2.42;;;614.70;1408.00;;;;;;4894665;29;20024;-62
2021/05/23 08:41:00;;;;;;;4.72;2.35;;;614.70;1382.40;;;;;;4893965;29;20041;-63
2021/05/23 08:43:28;;;;;;;3.67;2.50;;;614.80;1433.60;;;;;;4893914;29;20021;-62
2021/05/23 08:45:54;;;;;;;4.72;2.55;;;614.90;1382.40;;;;;;4893568;29;20423;-63
2021/05/23 08:48:21;;;;;;;6.55;2.40;;;615.10;1382.40;;;;;;4893827;29;20068;-63
2021/05/23 08:50:48;;;;;;;3.88;2.50;;;615.10;1356.80;;;;;;4894558;29;20419;-63
2021/05/23 08:53:14;;;;;;;4.05;2.30;;;615.20;1356.80;;;;;;4891850;29;20025;-63
2021/05/23 08:55:43;;;;;;;5.15;2.90;;;615.20;1382.40;;;;;;4881862;29;20848;-63
2021/05/23 08:58:10;;;;;;;3.10;2.30;;;615.30;1356.80;;;;;;4895146;29;20391;-63
2021/05/23 09:00:36;;;;;;;4.43;2.40;;;640.00;1356.80;;;;;;4898074;29;20032;-64
2021/05/23 09:03:11;;;;;;;4.80;2.15;;;640.10;1331.20;;;;;;4897705;29;20037;-63
2021/05/23 09:05:43;;;;;;;4.72;1.92;;;640.30;1305.60;;;;;;4898839;29;20045;-63
2021/05/23 09:08:24;;;;;;;3.50;1.92;;;640.40;1203.20;;;;;;4898699;29;20483;-63
2021/05/23 09:10:53;;;;;;;3.85;1.90;;;640.40;1203.20;;;;;;4898889;29;20044;-63
2021/05/23 09:13:49;;;;;;;3.38;1.60;;;640.50;1203.20;;;;;;4899460;29;20024;-63
2021/05/23 09:16:15;;;;;;;3.22;1.98;;;640.50;1177.60;;;;;;4896495;29;20061;-63
2021/05/23 09:18:46;;;;;;;3.97;1.88;;;640.60;1177.60;;;;;;4899144;29;20135;-62
2021/05/23 09:21:15;;;;;;;3.38;1.75;;;640.80;1152.00;;;;;;4899480;29;20356;-62
2021/05/23 09:23:45;;;;;;;4.38;1.70;;;640.50;1203.20;;;;;;4899388;29;20536;-63
2021/05/23 09:26:35;;;;;;;3.92;2.00;;;640.80;1177.60;;;;;;4898983;29;20554;-62
2021/05/23 09:29:10;;;;;;;2.60;1.63;;;640.90;1152.00;;;;;;4899151;29;20494;-63
2021/05/23 09:31:36;;;;;;;5.30;2.05;;;640.90;1126.40;;;;;;4899138;29;20029;-63
2021/05/23 09:34:03;;;;;;;2.92;1.90;;;640.90;1177.60;;;;;;4898961;29;20032;-63
2021/05/23 09:36:29;;;;;;;3.72;1.70;;;665.60;1203.20;;;;;;4896807;29;20064;-63
2021/05/23 09:38:58;;;;;;;4.05;1.80;;;665.90;1203.20;;;;;;4880748;29;20052;-64
2021/05/23 09:41:28;;;;;;;4.07;1.65;;;665.90;1126.40;;;;;;4899151;29;20096;-63
2021/05/23 09:44:20;;;;;;;4.30;1.80;;;666.20;1075.20;;;;;;4899074;29;20028;-63
2021/05/23 09:46:55;;;;;;;2.72;1.60;;;666.40;1075.20;;;;;;4899080;29;20044;-62
2021/05/23 09:49:23;;;;;;;2.95;1.75;;;666.30;1075.20;;;;;;4899180;29;20025;-62
2021/05/23 09:52:00;;;;;;;5.78;2.00;;;691.20;1024.00;;;;;;4898866;29;20364;-62
2021/05/23 09:54:28;;;;;;;5.00;2.05;;;666.30;972.80;;;;;;4899018;29;20368;-62
2021/05/23 09:56:54;;;;;;;5.88;2.47;;;691.20;972.80;;;;;;4898852;29;20024;-62
2021/05/23 09:59:22;;;;;;;5.57;2.10;;;691.50;1024.00;;;;;;4898865;29;20028;-62
2021/05/23 10:01:48;;;;;;;4.80;2.33;;;691.30;998.40;;;;;;4899034;29;20108;-63
2021/05/23 10:04:24;;;;;;;5.00;1.98;;;691.50;972.80;;;;;;4898847;29;20036;-62
2021/05/23 10:07:10;;;;;;;5.18;1.80;;;691.70;972.80;;;;;;4898817;29;20041;-62
2021/05/23 10:09:37;;;;;;;5.18;1.90;;;691.60;921.60;;;;;;4889362;29;20495;-62
2021/05/23 10:12:06;;;;;;;6.10;2.13;;;691.50;921.60;;;;;;4891640;29;20418;-61
2021/05/23 10:14:34;;;;;;;3.20;1.92;;;691.50;998.40;;;;;;4898527;29;20503;-62
2021/05/23 10:17:00;;;;;;;3.38;1.88;;;691.60;921.60;;;;;;4881733;29;20046;-62
2021/05/23 10:19:30;;;;;;;4.20;1.70;;;691.80;921.60;;;;;;4897794;29;20048;-62
2021/05/23 10:21:58;;;;;;;2.60;1.88;;;691.70;870.40;;;;;;4898219;29;20036;-62
2021/05/23 10:24:33;;;;;;;3.22;1.70;;;692.00;921.60;;;;;;4893139;29;20061;-61
2021/05/23 10:27:04;;;;;;;5.05;2.30;;;692.00;896.00;;;;;;4897213;29;20045;-63
2021/05/23 10:29:35;;;;;;;7.82;2.20;;;692.10;896.00;;;;;;4897961;29;20035;-65
2021/05/23 10:32:14;;;;;;;4.20;1.92;;;716.80;921.60;;;;;;4898336;29;20031;-63
2021/05/23 10:34:43;;;;;;;3.75;1.65;;;692.00;870.40;;;;;;4898360;29;20056;-62
2021/05/23 10:37:12;;;;;;;3.83;1.90;;;692.00;844.80;;;;;;4898358;29;20416;-64
2021/05/23 10:39:47;;;;;;;3.60;1.90;;;691.90;896.00;;;;;;4898601;29;20032;-64
2021/05/23 10:42:13;;;;;;;4.00;1.77;;;716.80;896.00;;;;;;4898297;29;20021;-63
2021/05/23 10:44:40;;;;;;;4.63;2.00;;;716.80;870.40;;;;;;4898035;29;20036;-64
2021/05/23 10:47:18;;;;;;;4.82;2.50;;;717.00;896.00;;;;;;4897846;29;20567;-61
2021/05/23 10:50:10;;;;;;;5.22;2.20;;;717.10;870.40;;;;;;4898050;29;20075;-60
2021/05/23 10:52:37;;;;;;;3.50;2.20;;;692.10;819.20;;;;;;4893883;29;20036;-61
2021/05/23 10:55:08;;;;;;;5.45;2.35;;;692.00;844.80;;;;;;4898120;29;20036;-61
2021/05/23 10:57:50;;;;;;;5.25;2.40;;;692.00;844.80;;;;;;4897974;29;20025;-61
2021/05/23 11:00:35;;;;;;;5.00;2.00;;;692.10;844.80;;;;;;4898183;29;20032;-60
2021/05/23 11:03:12;;;;;;;3.95;2.13;;;716.80;870.40;;;;;;4898178;29;20056;-60
2021/05/23 11:05:39;;;;;;;4.95;2.40;;;717.00;870.40;;;;;;4898276;29;20399;-61
2021/05/23 11:08:11;;;;;;;4.30;2.85;;;717.00;921.60;;;;;;4898192;29;20046;-62
2021/05/23 11:10:51;;;;;;;4.05;2.15;;;717.20;921.60;;;;;;4898317;29;20435;-61
2021/05/23 11:13:32;;;;;;;3.50;2.00;;;717.30;870.40;;;;;;4897931;29;20081;-65
2021/05/23 11:16:15;;;;;;;5.57;2.30;;;717.30;896.00;;;;;;4898140;29;20088;-62
2021/05/23 11:18:41;;;;;;;4.80;2.00;;;717.40;870.40;;;;;;4898189;29;20029;-65
2021/05/23 11:21:12;;;;;;;4.68;2.20;;;717.60;844.80;;;;;;4897971;29;20084;-64
2021/05/23 11:23:47;;;;;;;3.88;2.08;;;717.60;870.40;;;;;;4881140;29;20032;-64
2021/05/23 11:26:16;;;;;;;3.03;2.10;;;717.70;844.80;;;;;;4897855;29;20065;-62
2021/05/23 11:28:52;;;;;;;5.20;2.40;;;742.70;819.20;;;;;;4898317;29;20058;-65
2021/05/23 11:31:27;;;;;;;5.32;2.20;;;742.60;844.80;;;;;;4898041;29;20056;-61
2021/05/23 11:33:53;;;;;;;6.78;4.68;;;742.50;844.80;;;;;;4897840;29;20428;-63
2021/05/23 11:36:24;;;;;;;4.15;1.95;;;742.60;870.40;;;;;;4881267;29;20123;-62
2021/05/23 11:38:53;;;;;;;6.85;2.70;;;742.80;844.80;;;;;;4899660;29;20051;-63
2021/05/23 11:41:45;;;;;;;7.45;2.22;;;742.80;844.80;;;;;;4901194;29;20085;-62
2021/05/23 11:44:13;;;;;;;3.38;2.20;;;742.80;819.20;;;;;;4899538;29;20120;-62
2021/05/23 11:46:50;;;;;;;3.65;1.90;;;742.90;793.60;;;;;;4901116;29;20052;-62
2021/05/23 11:49:26;;;;;;;4.15;2.10;;;742.90;819.20;;;;;;4901036;29;20020;-63
2021/05/23 11:51:57;;;;;;;4.25;2.10;;;742.90;819.20;;;;;;4901309;29;20056;-66
2021/05/23 11:54:23;;;;;;;5.32;2.17;;;742.90;819.20;;;;;;4900821;29;20497;-62
2021/05/23 11:56:49;;;;;;;4.93;2.60;;;742.90;844.80;;;;;;4900699;29;20111;-65
2021/05/23 11:59:15;;;;;;;7.15;4.00;;;742.90;870.40;;;;;;4900930;29;20024;-67
2021/05/23 12:01:52;;;;;;;13.52;2.97;;;768.00;819.20;;;;;;4883873;29;20138;-69
2021/05/23 12:04:19;;;;;;;4.07;2.00;;;768.20;819.20;;;;;;4901231;29;20099;-63
2021/05/23 12:06:50;;;;;;;4.28;2.28;;;768.00;819.20;;;;;;4900917;29;20120;-63
2021/05/23 12:09:16;;;;;;;5.00;2.50;;;768.00;819.20;;;;;;4900902;29;20040;-64
2021/05/23 12:11:52;;;;;;;3.65;2.13;;;768.10;819.20;;;;;;4884000;29;20032;-68
2021/05/23 12:14:32;;;;;;;5.78;3.30;;;768.10;819.20;;;;;;4900558;29;20039;-68
2021/05/23 12:17:04;;;;;;;4.40;2.55;;;768.20;793.60;;;;;;4900996;29;20108;-63